Time;durP1;ratioP1;P1;durP2;ratioP2;P2;SDS_P1;SDS_P2;PMS_P1;PMS_P2;Temp;Humidity;BMP_temperature;BMP_pressure;BME280_temperature;BME280_humidity;BME280_pressure;Samples;Min_cycle;Max_cycle;Signal;HPM_P1;HPM_P2
2023/07/10 00:01:16;;;;;;;18.65;13.30;;;18.30;99.60;;;;;;5004713;28;20062;-72
2023/07/10 00:03:41;;;;;;;19.60;13.90;;;18.30;99.60;;;;;;5006441;28;20027;-72
2023/07/10 00:06:12;;;;;;;22.48;14.15;;;18.30;99.60;;;;;;5000064;28;20060;-73
2023/07/10 00:08:38;;;;;;;15.80;13.65;;;18.30;99.70;;;;;;4999461;28;20448;-72
2023/07/10 00:11:10;;;;;;;19.52;13.60;;;18.30;99.60;;;;;;5013092;28;20438;-71
2023/07/10 00:13:35;;;;;;;22.25;14.30;;;18.30;99.60;;;;;;5002302;28;20486;-71
2023/07/10 00:16:00;;;;;;;25.60;15.70;;;18.30;99.70;;;;;;5005404;28;20042;-73
2023/07/10 00:18:26;;;;;;;23.95;14.70;;;18.20;99.70;;;;;;5006638;28;20054;-71
2023/07/10 00:20:52;;;;;;;20.20;14.63;;;18.30;99.70;;;;;;5003346;28;20045;-72
2023/07/10 00:23:18;;;;;;;19.58;14.45;;;18.30;99.70;;;;;;5007749;28;20034;-72
2023/07/10 00:25:43;;;;;;;19.10;14.35;;;18.20;99.70;;;;;;5001529;28;20125;-71
2023/07/10 00:28:14;;;;;;;23.15;15.18;;;18.30;99.70;;;;;;5011577;28;20037;-71
2023/07/10 00:30:40;;;;;;;22.98;14.77;;;18.30;99.70;;;;;;5006005;28;20022;-71
2023/07/10 00:33:13;;;;;;;19.65;14.65;;;18.30;99.70;;;;;;5008328;28;20108;-72
2023/07/10 00:35:39;;;;;;;22.85;15.13;;;18.30;99.70;;;;;;5007570;28;20032;-71
2023/07/10 00:38:25;;;;;;;21.95;14.70;;;18.20;99.70;;;;;;5004678;28;20041;-73
2023/07/10 00:40:51;;;;;;;18.88;13.45;;;18.30;99.70;;;;;;5004299;28;20052;-71
2023/07/10 00:43:28;;;;;;;18.10;13.90;;;18.30;99.70;;;;;;5003406;28;20046;-75
2023/07/10 00:45:56;;;;;;;20.45;14.82;;;18.30;99.80;;;;;;5010018;28;20041;-72
2023/07/10 00:48:36;;;;;;;20.27;15.70;;;18.40;99.80;;;;;;5009670;28;20029;-72
2023/07/10 00:51:10;;;;;;;20.25;15.23;;;18.40;99.80;;;;;;5007474;28;20026;-71
2023/07/10 00:53:38;;;;;;;21.08;14.50;;;18.40;99.80;;;;;;5018253;28;20018;-71
2023/07/10 00:56:11;;;;;;;21.02;14.32;;;18.30;99.70;;;;;;5002822;28;20119;-71
2023/07/10 00:58:40;;;;;;;17.88;15.23;;;18.30;99.70;;;;;;5003342;28;20030;-71
2023/07/10 01:01:08;;;;;;;19.40;14.15;;;18.30;99.70;;;;;;5002779;28;20188;-71
2023/07/10 01:03:35;;;;;;;21.42;14.27;;;18.20;99.70;;;;;;5009377;28;20126;-73
2023/07/10 01:06:14;;;;;;;20.48;13.43;;;18.20;99.70;;;;;;5003724;28;20040;-72
2023/07/10 01:08:46;;;;;;;18.08;13.55;;;18.10;99.70;;;;;;5005677;28;20351;-72
2023/07/10 01:11:11;;;;;;;19.40;14.43;;;18.10;99.80;;;;;;5002994;28;20169;-72
2023/07/10 01:13:40;;;;;;;19.15;14.25;;;18.10;99.80;;;;;;5007233;28;20121;-71
2023/07/10 01:16:06;;;;;;;19.40;14.35;;;18.10;99.90;;;;;;5003151;28;20086;-72
2023/07/10 01:18:31;;;;;;;19.75;14.40;;;18.00;99.90;;;;;;5007918;28;20061;-72
2023/07/10 01:21:24;;;;;;;16.63;13.20;;;18.00;99.80;;;;;;5007566;28;20044;-71
2023/07/10 01:23:50;;;;;;;17.27;13.98;;;18.00;99.90;;;;;;5004298;28;20057;-72
2023/07/10 01:26:16;;;;;;;19.70;14.55;;;18.00;99.90;;;;;;4999458;28;20049;-71
2023/07/10 01:28:42;;;;;;;19.40;12.57;;;18.00;99.90;;;;;;5003689;28;20108;-71
2023/07/10 01:31:10;;;;;;;16.67;12.90;;;17.90;99.90;;;;;;5006345;28;20096;-71
2023/07/10 01:33:40;;;;;;;17.33;13.88;;;17.90;99.90;;;;;;5003573;28;20088;-72
2023/07/10 01:36:07;;;;;;;18.23;14.65;;;17.90;99.90;;;;;;5007645;28;20060;-72
2023/07/10 01:38:44;;;;;;;18.73;14.48;;;17.90;99.90;;;;;;5002609;28;20408;-71
2023/07/10 01:41:36;;;;;;;20.83;14.48;;;18.00;99.90;;;;;;5000265;28;20105;-71
2023/07/10 01:44:15;;;;;;;20.80;15.32;;;18.00;99.90;;;;;;5007699;28;20030;-72
2023/07/10 01:46:41;;;;;;;22.98;16.70;;;18.00;99.90;;;;;;5001506;28;20037;-73
2023/07/10 01:49:06;;;;;;;22.98;17.88;;;17.90;99.90;;;;;;5002604;28;20053;-74
2023/07/10 01:51:32;;;;;;;26.85;18.08;;;17.90;99.90;;;;;;5002654;28;20022;-72
2023/07/10 01:54:03;;;;;;;22.30;18.05;;;18.00;99.90;;;;;;5009030;28;20030;-73
2023/07/10 01:56:30;;;;;;;31.42;20.08;;;18.00;99.90;;;;;;5003832;28;20374;-71
2023/07/10 01:58:55;;;;;;;26.92;20.05;;;18.00;99.90;;;;;;5001576;28;20064;-72
2023/07/10 02:01:21;;;;;;;30.77;19.88;;;18.00;99.90;;;;;;5000495;28;20312;-73
2023/07/10 02:03:46;;;;;;;28.13;19.23;;;18.00;99.90;;;;;;5010251;28;20165;-72
2023/07/10 02:06:12;;;;;;;27.58;18.98;;;18.00;99.90;;;;;;5001110;28;20379;-72
2023/07/10 02:08:37;;;;;;;24.00;18.08;;;18.00;99.90;;;;;;4998093;28;20025;-71
2023/07/10 02:11:03;;;;;;;29.65;20.48;;;17.90;99.90;;;;;;4993388;28;20403;-71
2023/07/10 02:13:28;;;;;;;28.35;19.85;;;17.90;99.90;;;;;;5006294;28;20026;-73
2023/07/10 02:16:00;;;;;;;27.60;20.55;;;17.90;99.90;;;;;;5005425;28;20473;-72
2023/07/10 02:18:25;;;;;;;29.92;20.70;;;17.90;99.90;;;;;;5002207;28;20474;-72
2023/07/10 02:20:53;;;;;;;30.00;20.58;;;17.80;99.90;;;;;;5007722;28;20050;-72
2023/07/10 02:23:19;;;;;;;29.23;20.15;;;17.80;99.90;;;;;;5018201;28;20395;-72
2023/07/10 02:25:44;;;;;;;30.92;21.67;;;17.80;99.90;;;;;;5004264;28;20087;-72
2023/07/10 02:28:10;;;;;;;27.65;21.23;;;17.90;99.90;;;;;;5008201;28;20102;-72
2023/07/10 02:30:38;;;;;;;29.83;20.63;;;17.90;99.90;;;;;;5003935;28;20091;-72
2023/07/10 02:33:04;;;;;;;26.13;20.58;;;17.90;99.90;;;;;;5002380;28;20045;-73
2023/07/10 02:35:30;;;;;;;29.35;21.67;;;17.90;99.90;;;;;;5006152;28;20172;-74
2023/07/10 02:37:56;;;;;;;29.15;21.02;;;17.90;99.90;;;;;;5009134;28;20066;-72
2023/07/10 02:40:21;;;;;;;28.05;21.30;;;17.90;99.90;;;;;;4999351;28;20446;-72
2023/07/10 02:42:47;;;;;;;32.08;20.38;;;17.80;99.90;;;;;;5002365;28;20037;-72
2023/07/10 02:45:13;;;;;;;26.35;20.67;;;17.80;99.90;;;;;;5003801;28;20030;-72
2023/07/10 02:47:39;;;;;;;27.85;20.58;;;17.70;99.90;;;;;;5001221;28;20175;-72
2023/07/10 02:50:05;;;;;;;32.47;20.98;;;17.70;99.90;;;;;;5006529;28;20466;-72
2023/07/10 02:52:31;;;;;;;28.38;22.25;;;17.80;99.90;;;;;;5008297;28;20037;-73
2023/07/10 02:54:56;;;;;;;31.38;21.85;;;17.80;99.90;;;;;;5007356;28;20049;-72
2023/07/10 02:57:22;;;;;;;32.85;23.05;;;17.80;99.90;;;;;;5011470;28;20049;-72
2023/07/10 02:59:47;;;;;;;30.17;22.63;;;17.80;99.90;;;;;;5006121;28;20386;-72
2023/07/10 03:02:12;;;;;;;31.17;21.10;;;17.80;99.90;;;;;;4999821;28;20030;-73
2023/07/10 03:04:38;;;;;;;31.77;23.15;;;17.90;99.90;;;;;;5003482;28;20048;-72
2023/07/10 03:07:04;;;;;;;38.13;24.13;;;17.90;99.90;;;;;;5001264;28;20113;-72
2023/07/10 03:09:29;;;;;;;32.30;23.45;;;17.90;99.90;;;;;;4998646;28;20029;-71
2023/07/10 03:11:55;;;;;;;33.17;23.17;;;17.90;99.90;;;;;;5004821;28;20110;-72
2023/07/10 03:14:20;;;;;;;34.72;24.00;;;17.80;99.90;;;;;;5003506;28;20382;-72
2023/07/10 03:16:47;;;;;;;34.40;22.60;;;17.90;99.90;;;;;;5009546;28;20131;-72
2023/07/10 03:19:13;;;;;;;36.25;22.70;;;17.90;99.90;;;;;;5005701;28;20454;-71
2023/07/10 03:21:38;;;;;;;33.65;23.08;;;17.90;99.90;;;;;;5004808;28;20029;-73
2023/07/10 03:24:04;;;;;;;32.80;22.52;;;18.00;99.90;;;;;;4998109;28;20034;-72
2023/07/10 03:26:30;;;;;;;34.22;23.00;;;18.00;99.90;;;;;;5009496;28;20295;-72
2023/07/10 03:29:10;;;;;;;33.55;23.35;;;18.00;99.90;;;;;;5014879;28;20026;-72
2023/07/10 03:31:35;;;;;;;32.33;22.63;;;18.00;99.90;;;;;;5002215;28;20105;-72
2023/07/10 03:34:02;;;;;;;31.25;22.75;;;18.10;99.90;;;;;;4998056;28;20056;-71
2023/07/10 03:36:28;;;;;;;35.95;24.00;;;18.00;99.90;;;;;;5000931;28;20064;-72
2023/07/10 03:38:54;;;;;;;35.28;22.80;;;18.10;99.90;;;;;;5002494;28;20038;-72
2023/07/10 03:41:20;;;;;;;29.90;22.65;;;18.00;99.90;;;;;;5013689;28;20045;-71
2023/07/10 03:43:48;;;;;;;34.00;22.55;;;18.10;99.90;;;;;;5019691;28;20089;-72
2023/07/10 03:46:13;;;;;;;31.88;22.92;;;18.20;99.90;;;;;;5007773;28;20018;-71
2023/07/10 03:48:39;;;;;;;36.60;22.42;;;18.10;99.90;;;;;;5007657;28;20123;-72
2023/07/10 03:51:04;;;;;;;29.77;21.92;;;18.20;99.90;;;;;;4996751;28;20129;-72
2023/07/10 03:53:30;;;;;;;31.77;23.17;;;18.20;99.90;;;;;;4999985;28;20049;-71
2023/07/10 03:55:56;;;;;;;29.30;21.52;;;18.10;99.90;;;;;;5000247;28;20033;-71
2023/07/10 03:58:30;;;;;;;33.88;22.40;;;18.10;99.90;;;;;;5008405;28;20102;-72
2023/07/10 04:00:58;;;;;;;38.28;22.50;;;18.00;99.90;;;;;;5004496;28;20410;-71
2023/07/10 04:03:25;;;;;;;31.67;21.75;;;18.10;99.90;;;;;;5013500;28;20037;-72
2023/07/10 04:05:58;;;;;;;36.53;23.15;;;18.00;99.90;;;;;;5007951;28;20216;-72
2023/07/10 04:08:27;;;;;;;30.83;21.33;;;18.00;99.90;;;;;;5000460;28;20330;-75
2023/07/10 04:10:55;;;;;;;34.10;22.67;;;18.00;99.90;;;;;;5004015;28;20034;-72
2023/07/10 04:13:21;;;;;;;32.78;22.35;;;18.00;99.90;;;;;;5008859;28;20053;-73
2023/07/10 04:16:01;;;;;;;33.20;22.75;;;18.00;99.90;;;;;;5001577;28;20037;-72
2023/07/10 04:18:32;;;;;;;36.45;22.23;;;18.00;99.90;;;;;;5004022;28;20108;-71
2023/07/10 04:20:58;;;;;;;;;;;18.00;99.90;;;;;;5003820;28;20104;-72
2023/07/10 04:23:24;;;;;;;30.45;22.38;;;18.10;99.90;;;;;;5003741;28;19905;-71
2023/07/10 04:25:49;;;;;;;34.00;24.38;;;18.10;99.90;;;;;;4998936;28;20045;-75
2023/07/10 04:28:15;;;;;;;41.22;26.67;;;18.10;99.90;;;;;;5004969;28;20026;-67
2023/07/10 04:30:40;;;;;;;39.58;26.27;;;18.10;99.90;;;;;;5002460;28;20041;-70
2023/07/10 04:33:08;;;;;;;37.42;26.67;;;18.10;99.90;;;;;;5004914;28;20041;-67
2023/07/10 04:35:34;;;;;;;34.92;25.95;;;18.20;99.90;;;;;;5003926;28;20425;-69
2023/07/10 04:37:59;;;;;;;35.67;25.30;;;18.10;99.90;;;;;;5000155;28;20018;-69
2023/07/10 04:40:25;;;;;;;40.72;25.38;;;18.20;99.90;;;;;;4998908;28;20045;-68
2023/07/10 04:42:51;;;;;;;33.55;25.45;;;18.20;99.90;;;;;;5008158;28;20459;-68
2023/07/10 04:45:17;;;;;;;32.47;24.40;;;18.20;99.90;;;;;;5004490;28;20026;-67
2023/07/10 04:47:42;;;;;;;36.92;26.02;;;18.20;99.90;;;;;;5002043;28;20385;-68
2023/07/10 04:50:08;;;;;;;36.00;25.52;;;18.20;99.90;;;;;;5004671;28;20187;-68
2023/07/10 04:52:34;;;;;;;30.65;24.45;;;18.30;99.90;;;;;;5000337;28;20045;-69
2023/07/10 04:54:59;;;;;;;35.60;25.67;;;18.40;99.90;;;;;;5003180;28;20090;-68
2023/07/10 04:57:25;;;;;;;33.25;24.75;;;18.40;99.90;;;;;;5001596;28;20030;-68
2023/07/10 04:59:50;;;;;;;37.35;27.50;;;18.40;99.90;;;;;;5013439;28;20038;-68
2023/07/10 05:02:16;;;;;;;31.02;25.08;;;18.40;99.90;;;;;;5001613;28;20127;-69
2023/07/10 05:04:41;;;;;;;40.13;25.45;;;18.50;99.90;;;;;;5003280;28;20042;-68
2023/07/10 05:07:08;;;;;;;35.60;26.13;;;18.60;99.90;;;;;;5001179;28;20046;-67
2023/07/10 05:09:33;;;;;;;35.25;25.95;;;18.60;99.90;;;;;;5007910;28;20376;-68
2023/07/10 05:11:59;;;;;;;35.75;27.10;;;18.60;99.90;;;;;;5011632;28;20034;-67
2023/07/10 05:14:24;;;;;;;40.92;26.27;;;18.70;99.90;;;;;;5006333;28;20029;-67
2023/07/10 05:16:50;;;;;;;38.40;27.17;;;18.70;99.90;;;;;;5008284;28;20532;-68
2023/07/10 05:19:16;;;;;;;40.17;27.52;;;18.70;99.90;;;;;;5003632;28;20052;-67
2023/07/10 05:21:42;;;;;;;37.83;27.08;;;18.70;99.90;;;;;;5009327;28;20025;-68
2023/07/10 05:24:07;;;;;;;37.20;27.10;;;18.80;99.90;;;;;;5003965;28;20421;-68
2023/07/10 05:26:33;;;;;;;33.97;26.77;;;18.80;99.90;;;;;;5007076;28;20034;-67
2023/07/10 05:28:58;;;;;;;37.00;29.55;;;18.80;99.90;;;;;;5012300;28;20470;-67
2023/07/10 05:31:24;;;;;;;38.22;26.83;;;18.80;99.90;;;;;;5014679;28;20048;-69
2023/07/10 05:33:50;;;;;;;28.42;23.63;;;18.90;99.90;;;;;;5010828;28;20492;-68
2023/07/10 05:36:18;;;;;;;30.40;24.17;;;18.90;99.90;;;;;;5009047;28;20128;-67
2023/07/10 05:38:48;;;;;;;29.15;23.20;;;18.80;99.90;;;;;;5009183;28;20030;-68
2023/07/10 05:41:14;;;;;;;27.30;22.47;;;18.80;99.90;;;;;;5003967;28;20018;-67
2023/07/10 05:43:40;;;;;;;27.63;20.98;;;18.70;99.90;;;;;;5007438;28;20022;-70
2023/07/10 05:46:06;;;;;;;27.90;21.33;;;18.80;99.90;;;;;;5007281;28;20032;-67
2023/07/10 05:48:32;;;;;;;28.02;22.50;;;18.70;99.90;;;;;;5008922;28;20082;-70
2023/07/10 05:50:57;;;;;;;27.35;22.88;;;18.70;99.90;;;;;;5006956;28;20419;-69
2023/07/10 05:53:23;;;;;;;28.40;23.15;;;18.70;99.90;;;;;;5009068;28;20124;-68
2023/07/10 05:55:51;;;;;;;29.38;24.10;;;18.70;99.90;;;;;;5005539;28;20044;-68
2023/07/10 05:58:18;;;;;;;37.95;24.48;;;18.70;99.90;;;;;;5020089;28;20037;-67
2023/07/10 06:00:47;;;;;;;30.00;24.63;;;18.70;99.90;;;;;;4998281;28;20076;-68
2023/07/10 06:03:12;;;;;;;31.05;23.88;;;18.80;99.90;;;;;;5006854;28;20117;-68
2023/07/10 06:05:38;;;;;;;32.38;23.70;;;19.00;99.90;;;;;;4999049;28;20068;-69
2023/07/10 06:08:04;;;;;;;32.65;23.77;;;19.00;99.90;;;;;;4997552;28;20605;-70
2023/07/10 06:10:29;;;;;;;30.30;22.73;;;19.00;99.70;;;;;;4997762;28;20078;-68
2023/07/10 06:12:55;;;;;;;26.95;22.08;;;19.00;99.90;;;;;;5001641;28;20080;-68
2023/07/10 06:15:20;;;;;;;25.75;21.45;;;19.00;99.80;;;;;;5005527;28;20041;-69
2023/07/10 06:17:46;;;;;;;27.00;20.60;;;19.10;99.90;;;;;;5006885;28;20058;-68
2023/07/10 06:20:13;;;;;;;23.27;18.10;;;19.10;99.80;;;;;;4993821;28;20093;-66
2023/07/10 06:22:39;;;;;;;21.60;17.73;;;19.10;99.80;;;;;;4999793;28;20971;-67
2023/07/10 06:25:04;;;;;;;22.58;16.83;;;19.00;99.60;;;;;;4998482;28;20053;-66
2023/07/10 06:27:30;;;;;;;19.10;15.43;;;19.00;99.50;;;;;;5011885;28;20113;-66
2023/07/10 06:29:56;;;;;;;21.23;13.82;;;19.00;99.70;;;;;;5005249;28;20548;-67
2023/07/10 06:32:21;;;;;;;16.02;13.10;;;19.00;99.80;;;;;;5007661;28;20501;-66
2023/07/10 06:34:47;;;;;;;17.10;12.60;;;19.00;99.60;;;;;;5005059;28;20033;-67
2023/07/10 06:37:13;;;;;;;21.15;14.57;;;19.00;99.60;;;;;;5012638;28;20277;-67
2023/07/10 06:39:39;;;;;;;25.58;16.60;;;19.00;99.80;;;;;;4997312;28;20109;-67
2023/07/10 06:42:05;;;;;;;23.13;16.80;;;18.90;99.60;;;;;;5008442;28;20508;-67
2023/07/10 06:44:30;;;;;;;26.05;18.17;;;18.90;99.70;;;;;;5007658;28;20052;-67
2023/07/10 06:46:56;;;;;;;24.92;17.17;;;18.90;99.60;;;;;;4996555;28;20549;-69
2023/07/10 06:49:21;;;;;;;25.60;17.20;;;18.90;99.80;;;;;;5003105;28;20447;-68
2023/07/10 06:51:46;;;;;;;25.83;18.20;;;18.90;99.80;;;;;;5001223;28;20076;-68
2023/07/10 06:54:12;;;;;;;30.85;19.52;;;18.90;99.80;;;;;;5009138;28;20041;-69
2023/07/10 06:56:38;;;;;;;27.80;18.23;;;19.00;99.90;;;;;;5011385;28;20149;-70
2023/07/10 06:59:03;;;;;;;25.88;18.42;;;19.00;99.80;;;;;;5007720;28;20041;-70
2023/07/10 07:01:29;;;;;;;24.25;17.50;;;19.10;99.40;;;;;;5001888;28;20427;-69
2023/07/10 07:03:54;;;;;;;25.25;17.77;;;19.10;99.30;;;;;;5007646;28;20113;-69
2023/07/10 07:06:20;;;;;;;22.55;16.95;;;19.10;99.30;;;;;;4999772;28;20038;-70
2023/07/10 07:08:51;;;;;;;26.42;17.42;;;19.20;99.50;;;;;;4998543;28;20034;-71
2023/07/10 07:11:17;;;;;;;24.85;16.98;;;19.20;99.20;;;;;;5006323;28;20022;-69
2023/07/10 07:13:42;;;;;;;22.13;16.65;;;19.20;99.40;;;;;;5008465;28;20041;-70
2023/07/10 07:16:08;;;;;;;23.65;16.35;;;19.30;99.30;;;;;;5005492;28;20030;-68
2023/07/10 07:18:34;;;;;;;24.25;16.15;;;19.30;99.20;;;;;;5012769;28;20053;-69
2023/07/10 07:21:00;;;;;;;21.02;15.70;;;19.40;99.00;;;;;;4997947;28;20300;-69
2023/07/10 07:23:26;;;;;;;20.58;13.63;;;19.30;98.80;;;;;;5001337;28;20030;-69
2023/07/10 07:25:54;;;;;;;17.55;14.75;;;19.50;99.00;;;;;;5000834;28;20030;-70
2023/07/10 07:28:20;;;;;;;20.05;14.80;;;19.30;98.80;;;;;;5005829;28;20437;-69
2023/07/10 07:30:48;;;;;;;19.50;14.10;;;19.40;98.90;;;;;;5004701;28;20084;-69
2023/07/10 07:33:15;;;;;;;21.42;15.32;;;19.40;98.90;;;;;;5004366;28;20034;-69
2023/07/10 07:35:41;;;;;;;18.52;13.88;;;19.50;98.90;;;;;;4996757;28;20423;-70
2023/07/10 07:38:06;;;;;;;21.95;14.10;;;19.60;98.60;;;;;;5002889;28;20034;-69
2023/07/10 07:40:32;;;;;;;17.88;14.15;;;19.90;98.60;;;;;;4996472;28;20137;-72
2023/07/10 07:42:58;;;;;;;16.42;13.45;;;20.00;98.10;;;;;;5002666;28;20030;-70
2023/07/10 07:45:23;;;;;;;16.23;12.40;;;20.00;97.70;;;;;;4999708;28;20096;-70
2023/07/10 07:47:49;;;;;;;16.42;12.27;;;20.00;97.50;;;;;;4989545;28;20037;-70
2023/07/10 07:50:14;;;;;;;14.13;11.00;;;20.10;97.80;;;;;;4998727;28;20038;-70
2023/07/10 07:52:40;;;;;;;16.23;12.00;;;20.00;97.60;;;;;;5003759;28;20034;-71
2023/07/10 07:55:06;;;;;;;17.55;12.77;;;20.00;97.80;;;;;;4996723;28;20105;-71
2023/07/10 07:57:32;;;;;;;15.18;10.38;;;20.00;97.50;;;;;;4998408;28;20142;-70
2023/07/10 07:59:58;;;;;;;17.17;10.40;;;20.00;97.20;;;;;;4996089;28;20160;-71
2023/07/10 08:02:24;;;;;;;11.77;9.80;;;20.00;97.40;;;;;;5001384;28;20383;-68
2023/07/10 08:04:49;;;;;;;11.90;9.20;;;19.80;97.20;;;;;;4999778;28;20026;-69
2023/07/10 08:07:15;;;;;;;15.38;10.55;;;19.70;97.80;;;;;;5001001;28;20048;-73
2023/07/10 08:09:40;;;;;;;13.75;9.75;;;19.70;97.60;;;;;;5004769;28;20126;-74
2023/07/10 08:12:06;;;;;;;14.15;9.98;;;19.60;97.80;;;;;;5000144;28;20072;-74
2023/07/10 08:14:32;;;;;;;13.07;9.68;;;19.60;97.90;;;;;;4993619;28;20022;-68
2023/07/10 08:16:57;;;;;;;17.10;9.45;;;19.50;97.90;;;;;;5003068;28;20037;-68
2023/07/10 08:19:23;;;;;;;13.45;9.75;;;19.50;97.80;;;;;;5004724;28;20416;-67
2023/07/10 08:21:48;;;;;;;12.88;8.95;;;19.50;98.00;;;;;;5005561;28;20046;-69
2023/07/10 08:24:14;;;;;;;14.15;9.05;;;19.60;97.70;;;;;;4997134;28;20489;-69
2023/07/10 08:26:39;;;;;;;15.10;8.65;;;19.80;97.30;;;;;;5003165;28;20405;-70
2023/07/10 08:29:29;;;;;;;12.98;7.90;;;20.30;97.10;;;;;;5015194;28;20136;-69
2023/07/10 08:31:59;;;;;;;17.55;8.15;;;20.50;95.70;;;;;;5010825;28;20060;-69
2023/07/10 08:34:27;;;;;;;18.23;7.72;;;20.70;94.80;;;;;;5005509;28;20451;-69
2023/07/10 08:36:53;;;;;;;11.25;7.05;;;21.00;95.00;;;;;;5005992;28;20084;-69
2023/07/10 08:39:21;;;;;;;15.23;6.85;;;21.00;94.50;;;;;;5004580;28;20029;-68
2023/07/10 08:42:01;;;;;;;13.13;6.13;;;20.80;94.10;;;;;;5004044;28;20037;-69
2023/07/10 08:44:34;;;;;;;12.93;6.60;;;21.00;94.10;;;;;;5004986;28;20367;-71
2023/07/10 08:47:10;;;;;;;14.93;6.55;;;21.50;93.20;;;;;;5008323;28;20112;-69
2023/07/10 08:49:40;;;;;;;11.82;6.05;;;21.90;91.80;;;;;;5002754;28;20028;-69
2023/07/10 08:52:11;;;;;;;12.40;5.65;;;21.70;91.20;;;;;;5005276;28;20038;-71
2023/07/10 08:54:37;;;;;;;9.02;4.80;;;21.80;91.90;;;;;;5010859;28;20048;-69
2023/07/10 08:57:17;;;;;;;10.20;5.00;;;22.00;91.20;;;;;;5010448;28;20053;-70
2023/07/10 08:59:51;;;;;;;9.85;4.38;;;21.90;90.30;;;;;;5006034;28;20030;-69
2023/07/10 09:02:45;;;;;;;8.90;4.38;;;22.10;90.50;;;;;;4999071;28;20121;-69
2023/07/10 09:05:26;;;;;;;7.50;3.20;;;22.60;87.60;;;;;;5008109;28;20038;-69
2023/07/10 09:07:55;;;;;;;7.90;3.83;;;22.00;86.60;;;;;;4999102;28;20092;-69
2023/07/10 09:10:30;;;;;;;7.15;3.53;;;21.90;88.20;;;;;;5018484;28;20037;-69
2023/07/10 09:12:59;;;;;;;7.40;3.35;;;21.90;87.50;;;;;;5007810;28;20028;-69
2023/07/10 09:15:32;;;;;;;6.57;3.50;;;22.00;86.80;;;;;;4997203;28;20044;-69
2023/07/10 09:18:13;;;;;;;6.63;2.72;;;22.00;86.70;;;;;;5004957;28;20030;-69
2023/07/10 09:20:40;;;;;;;7.32;3.50;;;22.00;86.30;;;;;;4999673;28;20049;-69
2023/07/10 09:23:19;;;;;;;10.18;3.28;;;22.10;86.80;;;;;;5007203;28;20049;-68
2023/07/10 09:25:51;;;;;;;7.57;3.33;;;22.10;85.10;;;;;;5015484;28;20136;-68
2023/07/10 09:28:17;;;;;;;7.05;2.95;;;22.40;84.90;;;;;;5007328;28;20022;-70
2023/07/10 09:31:03;;;;;;;5.78;2.95;;;22.60;85.20;;;;;;5004129;28;20872;-69
2023/07/10 09:33:49;;;;;;;7.22;2.63;;;22.50;84.60;;;;;;5006997;28;20121;-69
2023/07/10 09:36:18;;;;;;;5.72;2.58;;;22.50;84.30;;;;;;5007715;28;20043;-69
2023/07/10 09:38:45;;;;;;;6.97;2.60;;;22.40;84.80;;;;;;5010166;28;20032;-69
2023/07/10 09:41:21;;;;;;;5.70;2.45;;;22.40;84.70;;;;;;5012882;28;20037;-70
2023/07/10 09:43:57;;;;;;;6.15;2.78;;;22.50;85.30;;;;;;5010122;28;20030;-69
2023/07/10 09:46:31;;;;;;;7.10;2.88;;;23.00;84.20;;;;;;5006994;28;20133;-69
2023/07/10 09:49:00;;;;;;;5.43;1.75;;;23.00;81.70;;;;;;5012558;28;20042;-69
2023/07/10 09:51:28;;;;;;;3.42;1.90;;;23.00;81.80;;;;;;5010464;28;20025;-69
2023/07/10 09:54:02;;;;;;;2.72;1.50;;;22.90;80.90;;;;;;5011275;28;20048;-69
2023/07/10 09:56:35;;;;;;;4.13;1.70;;;23.00;81.30;;;;;;5011469;28;20156;-69
2023/07/10 09:59:01;;;;;;;4.72;1.92;;;23.30;79.40;;;;;;5006677;28;20030;-70
2023/07/10 10:01:29;;;;;;;4.57;2.13;;;23.50;78.30;;;;;;5009494;28;20034;-69
2023/07/10 10:03:55;;;;;;;3.40;2.00;;;23.30;78.70;;;;;;5009686;28;20030;-68
2023/07/10 10:06:23;;;;;;;5.50;2.30;;;23.20;78.70;;;;;;5013516;28;20115;-69
2023/07/10 10:08:51;;;;;;;5.03;2.13;;;23.40;79.40;;;;;;5005278;28;20491;-70
2023/07/10 10:11:17;;;;;;;4.65;2.05;;;23.40;77.30;;;;;;5005770;28;20140;-69
2023/07/10 10:13:59;;;;;;;3.97;1.92;;;23.60;76.30;;;;;;5003526;28;20037;-69
2023/07/10 10:16:31;;;;;;;4.50;2.13;;;24.00;75.90;;;;;;5005287;28;20061;-70
2023/07/10 10:19:14;;;;;;;3.70;2.00;;;23.70;76.40;;;;;;5007295;28;20905;-69
2023/07/10 10:21:40;;;;;;;3.05;2.05;;;23.60;77.30;;;;;;5007487;28;20048;-69
2023/07/10 10:24:10;;;;;;;5.85;1.83;;;23.90;76.60;;;;;;5005427;28;20402;-69
2023/07/10 10:27:04;;;;;;;6.03;2.15;;;24.10;74.10;;;;;;5007993;28;20029;-69
2023/07/10 10:30:04;;;;;;;4.57;2.35;;;24.00;72.40;;;;;;5007870;28;20042;-70
2023/07/10 10:32:53;;;;;;;3.33;1.93;;;23.70;75.10;;;;;;5006621;28;20029;-69
2023/07/10 10:35:37;;;;;;;7.15;2.20;;;23.70;74.80;;;;;;5009760;28;20098;-69
2023/07/10 10:38:35;;;;;;;4.15;2.10;;;23.60;76.60;;;;;;5000902;28;20073;-69
2023/07/10 10:41:29;;;;;;;9.35;2.47;;;23.50;76.00;;;;;;5007801;28;20033;-69
2023/07/10 10:44:24;;;;;;;5.55;2.22;;;23.60;74.50;;;;;;5009771;28;20037;-69
2023/07/10 10:47:30;;;;;;;6.40;2.38;;;23.60;74.70;;;;;;4982025;28;20081;-69
2023/07/10 10:50:02;;;;;;;6.40;2.28;;;24.00;74.80;;;;;;4998838;28;20358;-69
2023/07/10 10:53:00;;;;;;;4.63;2.30;;;24.40;73.30;;;;;;5019289;28;20061;-69
2023/07/10 10:55:31;;;;;;;3.83;1.77;;;24.30;72.00;;;;;;5010864;28;20105;-69
2023/07/10 10:58:22;;;;;;;6.65;2.60;;;24.50;70.10;;;;;;5015648;28;20029;-70
2023/07/10 11:01:15;;;;;;;7.63;2.65;;;25.00;70.80;;;;;;5006120;28;20041;-70
2023/07/10 11:03:45;;;;;;;5.82;2.42;;;25.10;70.50;;;;;;5004769;28;20342;-69
2023/07/10 11:06:13;;;;;;;6.97;2.53;;;25.60;70.20;;;;;;5006287;28;20033;-70
2023/07/10 11:08:46;;;;;;;4.75;2.42;;;25.40;68.60;;;;;;5004846;28;20131;-70
2023/07/10 11:11:22;;;;;;;6.40;2.65;;;25.30;68.70;;;;;;5005940;28;20129;-69
2023/07/10 11:13:48;;;;;;;7.28;2.38;;;25.30;69.40;;;;;;5009832;28;20082;-69
2023/07/10 11:16:14;;;;;;;5.57;2.60;;;25.40;69.00;;;;;;5002871;28;20041;-69
2023/07/10 11:18:39;;;;;;;5.65;2.55;;;24.90;70.10;;;;;;5009093;28;20046;-69
2023/07/10 11:21:05;;;;;;;4.43;2.42;;;25.00;69.50;;;;;;5003287;28;20035;-69
2023/07/10 11:23:34;;;;;;;5.97;2.38;;;24.70;70.10;;;;;;5011294;28;20029;-70
2023/07/10 11:26:26;;;;;;;6.55;2.97;;;25.00;70.20;;;;;;5001061;28;20470;-69
2023/07/10 11:28:58;;;;;;;6.65;2.45;;;25.30;70.80;;;;;;5003262;28;20049;-69
2023/07/10 11:31:34;;;;;;;5.63;2.25;;;25.20;69.90;;;;;;5005943;28;20116;-69
2023/07/10 11:34:05;;;;;;;5.70;2.20;;;24.90;66.40;;;;;;5007601;28;20089;-69
2023/07/10 11:36:36;;;;;;;6.25;1.98;;;24.20;68.60;;;;;;5001201;28;20058;-69
2023/07/10 11:39:11;;;;;;;4.65;2.47;;;24.30;69.60;;;;;;5010813;28;20030;-69
2023/07/10 11:41:44;;;;;;;7.05;2.78;;;24.30;70.10;;;;;;5008144;28;20372;-69
2023/07/10 11:44:30;;;;;;;4.38;2.08;;;24.10;71.20;;;;;;5010131;28;20108;-69
2023/07/10 11:47:18;;;;;;;7.05;2.38;;;24.70;68.10;;;;;;5011568;28;20437;-69
2023/07/10 11:50:13;;;;;;;5.97;2.17;;;24.60;68.30;;;;;;5003113;28;20045;-69
2023/07/10 11:52:40;;;;;;;4.53;1.77;;;24.80;67.70;;;;;;5003508;28;20037;-69
2023/07/10 11:55:11;;;;;;;3.78;1.70;;;24.80;66.00;;;;;;5005165;28;20064;-69
2023/07/10 11:57:37;;;;;;;3.78;1.58;;;25.20;63.70;;;;;;4998859;28;20026;-68
2023/07/10 12:00:14;;;;;;;4.15;1.75;;;24.80;62.90;;;;;;5001869;28;20072;-69
2023/07/10 12:02:48;;;;;;;2.58;1.40;;;25.10;62.00;;;;;;4997213;28;20877;-69
2023/07/10 12:05:32;;;;;;;4.13;2.22;;;24.90;62.30;;;;;;4998188;28;20022;-69
2023/07/10 12:08:07;;;;;;;7.43;2.65;;;24.60;66.10;;;;;;5001138;28;20331;-69
2023/07/10 12:10:40;;;;;;;4.60;2.20;;;24.70;67.80;;;;;;5006854;28;20029;-75
2023/07/10 12:13:28;;;;;;;7.28;2.40;;;25.90;64.50;;;;;;5003697;28;20026;-72
2023/07/10 12:15:57;;;;;;;5.18;2.35;;;26.50;64.40;;;;;;5000502;28;20470;-73
2023/07/10 12:18:29;;;;;;;5.57;2.08;;;26.90;62.20;;;;;;5003357;28;20026;-69
2023/07/10 12:20:54;;;;;;;3.72;2.08;;;26.80;61.50;;;;;;5005357;28;20046;-69
2023/07/10 12:23:20;;;;;;;4.97;1.40;;;27.50;59.80;;;;;;5001921;28;20533;-69
2023/07/10 12:25:51;;;;;;;2.85;1.17;;;27.90;56.60;;;;;;5000671;28;20388;-71
2023/07/10 12:28:22;;;;;;;4.72;1.33;;;27.90;53.80;;;;;;5007156;28;20057;-69
2023/07/10 12:30:52;;;;;;;3.80;1.20;;;26.80;53.40;;;;;;5002738;28;20072;-70
2023/07/10 12:33:42;;;;;;;3.67;1.20;;;26.50;54.30;;;;;;5000066;28;20045;-70
2023/07/10 12:36:13;;;;;;;4.75;1.40;;;26.30;55.40;;;;;;4997391;28;20030;-70
2023/07/10 12:38:39;;;;;;;3.25;1.35;;;27.10;55.90;;;;;;5006022;28;20097;-70
2023/07/10 12:41:06;;;;;;;4.22;1.35;;;27.30;56.10;;;;;;5004588;28;20065;-70
2023/07/10 12:43:32;;;;;;;3.05;0.95;;;28.00;52.80;;;;;;5015456;28;20083;-71
2023/07/10 12:46:22;;;;;;;2.28;0.90;;;27.90;51.90;;;;;;5008876;28;20438;-71